Time;durP1;ratioP1;P1;durP2;ratioP2;P2;SDS_P1;SDS_P2;PMS_P1;PMS_P2;Temp;Humidity;BMP_temperature;BMP_pressure;BME280_temperature;BME280_humidity;BME280_pressure;Samples;Min_cycle;Max_cycle;Signal;HPM_P1;HPM_P2
2021/06/18 00:02:35;;;;;;;;;;;16.90;99.90;;;;;;8360242;28;19948;-63
2021/06/18 00:06:35;;;;;;;;;;;16.60;99.90;;;;;;8359520;28;19948;-63
2021/06/18 00:10:36;;;;;;;;;;;16.50;99.90;;;;;;8359540;28;20351;-63
2021/06/18 00:14:36;;;;;;;;;;;16.50;99.90;;;;;;8359708;28;20271;-63
2021/06/18 00:18:37;;;;;;;;;;;16.30;99.90;;;;;;8359199;28;20007;-63
2021/06/18 00:22:37;;;;;;;;;;;15.90;99.90;;;;;;8359572;28;19920;-63
2021/06/18 00:26:38;;;;;;;;;;;15.80;99.90;;;;;;8359443;28;20004;-63
2021/06/18 00:30:39;;;;;;;;;;;15.60;99.90;;;;;;8358552;28;20291;-63
2021/06/18 00:34:40;;;;;;;;;;;15.70;99.90;;;;;;8359543;28;19939;-63
2021/06/18 00:38:40;;;;;;;;;;;15.80;99.90;;;;;;8359098;28;19983;-63
2021/06/18 00:42:41;;;;;;;;;;;15.50;99.90;;;;;;8358502;28;19948;-63
2021/06/18 00:46:42;;;;;;;;;;;15.30;99.90;;;;;;8359197;28;19909;-63
2021/06/18 00:50:42;;;;;;;;;;;15.30;99.90;;;;;;8359273;28;19904;-63
2021/06/18 00:54:44;;;;;;;;;;;15.40;99.90;;;;;;8358004;28;20395;-63
2021/06/18 00:58:45;;;;;;;;;;;15.40;99.90;;;;;;8359094;28;19913;-63
2021/06/18 01:02:46;;;;;;;;;;;15.30;99.90;;;;;;8358123;28;19943;-63
2021/06/18 01:06:50;;;;;;;;;;;15.40;99.90;;;;;;8358528;28;20368;-63
2021/06/18 01:11:05;;;;;;;;;;;15.50;99.90;;;;;;8358902;28;19945;-63
2021/06/18 01:15:13;;;;;;;;;;;15.40;99.90;;;;;;8359015;28;19915;-63
2021/06/18 01:19:13;;;;;;;;;;;15.20;99.90;;;;;;8358273;28;20117;-63
2021/06/18 01:23:23;;;;;;;;;;;15.50;99.90;;;;;;8358570;28;19905;-63
2021/06/18 01:27:27;;;;;;;;;;;15.50;99.90;;;;;;8358366;28;20326;-63
2021/06/18 01:31:30;;;;;;;;;;;15.40;99.90;;;;;;8358255;28;19909;-63
2021/06/18 01:35:41;;;;;;;;;;;15.30;99.90;;;;;;8358216;28;19939;-63
2021/06/18 01:39:43;;;;;;;;;;;15.10;99.90;;;;;;8358117;28;20401;-63
2021/06/18 01:43:44;;;;;;;;;;;15.30;99.90;;;;;;8363474;28;20282;-63
2021/06/18 01:47:46;;;;;;;;;;;15.40;99.90;;;;;;8363988;28;20371;-63
2021/06/18 01:51:48;;;;;;;;;;;15.20;99.90;;;;;;8364063;28;19911;-63
2021/06/18 01:55:49;;;;;;;;;;;14.90;99.90;;;;;;8363372;28;20037;-63
2021/06/18 01:59:52;;;;;;;;;;;14.70;99.90;;;;;;8400703;23;20412;-65
2021/06/18 02:03:52;;;;;;;;;;;14.90;99.90;;;;;;8396690;28;19955;-65
2021/06/18 02:07:54;;;;;;;;;;;15.00;99.90;;;;;;8393881;28;19912;-65
2021/06/18 02:11:54;;;;;;;;;;;14.60;99.90;;;;;;8363535;28;19905;-65
2021/06/18 02:15:55;;;;;;;;;;;14.70;99.90;;;;;;8363146;28;19950;-65
2021/06/18 02:19:56;;;;;;;;;;;14.80;99.90;;;;;;8362570;28;19975;-65
2021/06/18 02:23:58;;;;;;;;;;;14.40;99.90;;;;;;8363199;28;19905;-65
2021/06/18 02:27:59;;;;;;;;;;;14.40;99.90;;;;;;8362982;28;19943;-65
2021/06/18 02:32:01;;;;;;;;;;;14.60;99.90;;;;;;8361187;28;20164;-65
2021/06/18 02:36:03;;;;;;;;;;;14.40;99.90;;;;;;8362245;28;20293;-65
2021/06/18 02:40:04;;;;;;;;;;;14.60;99.90;;;;;;8362290;28;20223;-66
2021/06/18 02:44:05;;;;;;;;;;;14.40;99.90;;;;;;8362214;28;19947;-65
2021/06/18 02:48:06;;;;;;;;;;;14.40;99.90;;;;;;8361916;28;19939;-65
2021/06/18 02:52:08;;;;;;;;;;;14.30;99.90;;;;;;8361401;28;19908;-65
2021/06/18 02:56:13;;;;;;;;;;;14.40;99.90;;;;;;8360282;28;19905;-65
2021/06/18 03:00:15;;;;;;;;;;;14.40;99.90;;;;;;8361093;28;20378;-65
2021/06/18 03:04:23;;;;;;;;;;;14.60;99.90;;;;;;8360449;28;20141;-65
2021/06/18 03:08:24;;;;;;;;;;;14.50;99.90;;;;;;8361026;28;19931;-65
2021/06/18 03:12:25;;;;;;;;;;;14.60;99.90;;;;;;8361157;28;19904;-65
2021/06/18 03:16:28;;;;;;;;;;;14.40;99.90;;;;;;8361590;28;19927;-65
2021/06/18 03:20:29;;;;;;;;;;;14.20;99.90;;;;;;8360892;28;19950;-66
2021/06/18 03:24:30;;;;;;;;;;;14.30;99.90;;;;;;8361191;28;19915;-65
2021/06/18 03:28:31;;;;;;;;;;;14.00;99.90;;;;;;8360620;28;19969;-66
2021/06/18 03:32:33;;;;;;;;;;;14.00;99.90;;;;;;8360034;28;19909;-66
2021/06/18 03:36:34;;;;;;;;;;;14.10;99.90;;;;;;8360284;28;20065;-65
2021/06/18 03:40:36;;;;;;;;;;;14.30;99.90;;;;;;8358645;28;20241;-65
2021/06/18 03:44:37;;;;;;;;;;;14.30;99.90;;;;;;8360740;28;20279;-65
2021/06/18 03:48:38;;;;;;;;;;;14.30;99.90;;;;;;8360151;28;20197;-65
2021/06/18 03:52:38;;;;;;;;;;;14.20;99.90;;;;;;8359850;28;19951;-65
2021/06/18 03:56:42;;;;;;;;;;;14.00;99.90;;;;;;8359685;28;20037;-65
2021/06/18 04:00:43;;;;;;;;;;;14.00;99.90;;;;;;8358692;28;20309;-65
2021/06/18 04:04:44;;;;;;;;;;;14.00;99.90;;;;;;8340026;28;20106;-65
2021/06/18 04:08:45;;;;;;;;;;;14.30;99.90;;;;;;8324793;28;19911;-65
2021/06/18 04:12:48;;;;;;;;;;;14.50;99.90;;;;;;8326626;28;19948;-65
2021/06/18 04:16:48;;;;;;;;;;;14.60;99.90;;;;;;8326431;28;19938;-66
2021/06/18 04:20:50;;;;;;;;;;;14.80;99.90;;;;;;8326187;28;19909;-66
2021/06/18 04:24:50;;;;;;;;;;;14.90;99.90;;;;;;8349812;28;19947;-65
2021/06/18 04:28:51;;;;;;;;;;;15.40;99.90;;;;;;8359015;28;20447;-65
2021/06/18 04:32:51;;;;;;;;;;;15.50;99.90;;;;;;8359141;28;20396;-65
2021/06/18 04:36:52;;;;;;;;;;;15.70;99.90;;;;;;8358963;28;19946;-65
2021/06/18 04:40:52;;;;;;;;;;;15.90;99.90;;;;;;8358898;28;19932;-65
2021/06/18 04:44:53;;;;;;;;;;;16.00;99.90;;;;;;8374649;28;19949;-65
2021/06/18 04:48:53;;;;;;;;;;;16.00;99.90;;;;;;8358095;28;19909;-65
2021/06/18 04:52:54;;;;;;;;;;;16.80;99.90;;;;;;8357593;28;19908;-70
2021/06/18 04:56:54;;;;;;;;;;;17.50;99.90;;;;;;8358688;28;20337;-70
2021/06/18 05:00:55;;;;;;;;;;;17.40;99.90;;;;;;8358242;28;19970;-70
2021/06/18 05:04:56;;;;;;;;;;;17.30;99.90;;;;;;8356551;28;20038;-70
2021/06/18 05:08:56;;;;;;;;;;;17.20;99.90;;;;;;8353624;28;19949;-70
2021/06/18 05:12:57;;;;;;;;;;;17.70;99.90;;;;;;8373982;28;19916;-70
2021/06/18 05:16:57;;;;;;;;;;;18.20;99.90;;;;;;8356238;28;19992;-70
2021/06/18 05:20:58;;;;;;;;;;;18.60;99.90;;;;;;8363147;28;19952;-70
2021/06/18 05:24:58;;;;;;;;;;;19.10;99.90;;;;;;8364227;28;19909;-69
2021/06/18 05:28:59;;;;;;;;;;;19.60;99.90;;;;;;8363522;28;19904;-68
2021/06/18 05:32:59;;;;;;;;;;;19.90;99.90;;;;;;8363653;28;19963;-69
2021/06/18 05:37:00;;;;;;;;;;;20.20;99.90;;;;;;8363864;28;19912;-71
2021/06/18 05:41:01;;;;;;;;;;;20.40;99.90;;;;;;8361648;28;20134;-69
2021/06/18 05:45:02;;;;;;;;;;;20.40;99.90;;;;;;8363013;28;20128;-68
2021/06/18 05:49:03;;;;;;;;;;;20.60;99.90;;;;;;8358146;28;19908;-69
2021/06/18 05:53:03;;;;;;;;;;;20.80;99.90;;;;;;8362166;28;20389;-69
2021/06/18 05:57:04;;;;;;;;;;;21.00;99.90;;;;;;8361573;28;19917;-69
2021/06/18 06:01:04;;;;;;;;;;;21.40;99.90;;;;;;8362394;28;20144;-70
2021/06/18 06:05:05;;;;;;;;;;;21.60;99.90;;;;;;8342709;28;19967;-70
2021/06/18 06:09:05;;;;;;;;;;;21.90;99.90;;;;;;8353444;28;19916;-70
2021/06/18 06:13:06;;;;;;;;;;;22.00;99.90;;;;;;8359663;28;19926;-70
2021/06/18 06:17:07;;;;;;;;;;;22.10;99.90;;;;;;8360068;28;19962;-70
2021/06/18 06:21:07;;;;;;;;;;;22.40;99.90;;;;;;8361760;28;19943;-69
2021/06/18 06:25:08;;;;;;;;;;;22.50;99.90;;;;;;8362024;28;19916;-69
2021/06/18 06:29:08;;;;;;;;;;;22.60;99.90;;;;;;8359997;28;19909;-72
2021/06/18 06:33:09;;;;;;;;;;;22.60;99.90;;;;;;8360490;28;19934;-72
2021/06/18 06:37:10;;;;;;;;;;;22.70;99.90;;;;;;8360610;28;19944;-71
2021/06/18 06:41:10;;;;;;;;;;;22.30;99.90;;;;;;8360324;28;19950;-70
2021/06/18 06:45:11;;;;;;;;;;;22.30;99.90;;;;;;8361786;28;20468;-71
2021/06/18 06:49:11;;;;;;;;;;;22.40;99.90;;;;;;8363153;28;19942;-70
2021/06/18 06:53:12;;;;;;;;;;;22.90;99.90;;;;;;8361788;28;19951;-71
2021/06/18 06:57:15;;;;;;;;;;;23.10;99.90;;;;;;8360043;28;20279;-71
2021/06/18 07:01:16;;;;;;;;;;;23.10;99.90;;;;;;8357952;28;19950;-70
2021/06/18 07:05:16;;;;;;;;;;;23.30;99.90;;;;;;8372720;28;19909;-70
2021/06/18 07:09:17;;;;;;;;;;;23.50;99.90;;;;;;8361177;28;19909;-70
2021/06/18 07:13:17;;;;;;;;;;;23.60;99.90;;;;;;8359228;28;19974;-69
2021/06/18 07:17:18;;;;;;;;;;;24.00;99.90;;;;;;8359361;28;19919;-69
2021/06/18 07:21:18;;;;;;;;;;;24.10;99.90;;;;;;8359787;28;19923;-68
2021/06/18 07:25:19;;;;;;;;;;;24.30;99.90;;;;;;8359322;28;19953;-70
2021/06/18 07:29:19;;;;;;;;;;;24.60;99.90;;;;;;8358811;28;19990;-71
2021/06/18 07:33:20;;;;;;;;;;;24.80;99.90;;;;;;8354022;28;19920;-70
2021/06/18 07:37:20;;;;;;;;;;;25.10;99.90;;;;;;8356623;28;19924;-71
2021/06/18 07:41:21;;;;;;;;;;;25.30;99.90;;;;;;8356707;28;19924;-70
2021/06/18 07:45:21;;;;;;;;;;;25.50;99.90;;;;;;8357488;28;20035;-70
2021/06/18 07:49:22;;;;;;;;;;;25.70;99.90;;;;;;8355068;28;20263;-68
2021/06/18 07:53:22;;;;;;;;;;;25.90;99.90;;;;;;8356534;28;19912;-69
2021/06/18 07:57:23;;;;;;;;;;;26.20;99.90;;;;;;8357333;28;19908;-70
2021/06/18 08:01:24;;;;;;;;;;;26.50;99.90;;;;;;8404095;23;19925;-66
2021/06/18 08:05:24;;;;;;;;;;;26.60;99.90;;;;;;8386188;28;19943;-67
2021/06/18 08:09:25;;;;;;;;;;;26.30;99.90;;;;;;8391092;28;19987;-67
2021/06/18 08:13:25;;;;;;;;;;;26.50;99.90;;;;;;8377677;28;19939;-67
2021/06/18 08:17:26;;;;;;;;;;;26.60;99.90;;;;;;8370891;28;20358;-66
2021/06/18 08:21:27;;;;;;;;;;;26.50;99.90;;;;;;8381269;28;19916;-67
2021/06/18 08:25:27;;;;;;;;;;;26.80;99.90;;;;;;8367140;28;20260;-68
2021/06/18 08:29:28;;;;;;;;;;;27.10;99.90;;;;;;8369386;28;19909;-67
2021/06/18 08:33:28;;;;;;;;;;;27.30;99.90;;;;;;8372979;28;19908;-67
2021/06/18 08:37:29;;;;;;;;;;;27.50;99.90;;;;;;8360451;28;19908;-67
2021/06/18 08:41:29;;;;;;;;;;;27.60;99.90;;;;;;8364807;28;19927;-66
2021/06/18 08:45:30;;;;;;;;;;;27.60;99.90;;;;;;8376687;28;20395;-67
2021/06/18 08:49:30;;;;;;;;;;;27.50;99.90;;;;;;8374644;28;19919;-67
2021/06/18 08:53:32;;;;;;;;;;;27.10;99.70;;;;;;8379417;28;19962;-67
2021/06/18 08:57:33;;;;;;;;;;;27.00;99.90;;;;;;8384868;28;20027;-66
2021/06/18 09:01:34;;;;;;;;;;;27.50;99.90;;;;;;8380334;28;19944;-66
2021/06/18 09:05:35;;;;;;;;;;;27.90;99.50;;;;;;8382893;28;20299;-68
2021/06/18 09:09:35;;;;;;;;;;;28.10;99.90;;;;;;8369846;28;20009;-66
2021/06/18 09:13:36;;;;;;;;;;;28.50;98.90;;;;;;8377947;28;19909;-67
2021/06/18 09:17:37;;;;;;;;;;;28.70;98.00;;;;;;8384056;28;19939;-68
2021/06/18 09:21:37;;;;;;;;;;;28.90;99.90;;;;;;8387517;28;20376;-69
2021/06/18 09:25:38;;;;;;;;;;;29.10;98.70;;;;;;8371597;28;19950;-67
2021/06/18 09:29:40;;;;;;;;;;;29.30;97.70;;;;;;8375427;28;19939;-67
2021/06/18 09:33:43;;;;;;;;;;;29.40;94.10;;;;;;8386647;28;19912;-66
2021/06/18 09:37:51;;;;;;;;;;;29.30;96.30;;;;;;8373765;28;19913;-67
2021/06/18 09:41:54;;;;;;;;;;;29.10;94.70;;;;;;8385624;28;20030;-67
2021/06/18 09:45:55;;;;;;;;;;;28.90;97.30;;;;;;8371558;28;19931;-66
2021/06/18 09:49:56;;;;;;;;;;;29.30;99.60;;;;;;8386695;28;20004;-67
2021/06/18 09:53:56;;;;;;;;;;;29.80;99.40;;;;;;8377373;28;19942;-67
2021/06/18 09:57:57;;;;;;;;;;;30.30;98.70;;;;;;8377103;28;19912;-67
2021/06/18 10:01:57;;;;;;;;;;;30.40;96.00;;;;;;8376421;28;19920;-67
2021/06/18 10:05:58;;;;;;;;;;;30.40;90.70;;;;;;8374590;28;19959;-68
2021/06/18 10:09:59;;;;;;;;;;;30.40;91.30;;;;;;8377497;28;19975;-65
2021/06/18 10:14:00;;;;;;;;;;;30.40;90.70;;;;;;8385176;28;19920;-68
2021/06/18 10:18:00;;;;;;;;;;;30.40;85.80;;;;;;8371899;28;19913;-69
2021/06/18 10:22:11;;;;;;;;;;;30.60;89.30;;;;;;8372669;28;19925;-69
2021/06/18 10:26:13;;;;;;;;;;;30.80;79.10;;;;;;8376708;28;19908;-67
2021/06/18 10:30:29;;;;;;;;;;;31.10;82.90;;;;;;8371052;28;19974;-67
2021/06/18 10:34:38;;;;;;;;;;;31.40;76.90;;;;;;8366920;28;19909;-67
2021/06/18 10:38:43;;;;;;;;;;;31.40;88.50;;;;;;8369381;28;19916;-66
2021/06/18 10:43:13;;;;;;;;;;;31.50;83.30;;;;;;8368935;28;19976;-66
2021/06/18 10:47:23;;;;;;;;;;;31.70;81.60;;;;;;8359659;28;20298;-66
2021/06/18 10:51:29;;;;;;;;;;;31.60;76.30;;;;;;8384485;28;19946;-66
2021/06/18 10:55:46;;;;;;;;;;;31.30;79.50;;;;;;8367122;28;19908;-67
2021/06/18 10:59:48;;;;;;;;;;;31.20;77.60;;;;;;8384427;28;19912;-66
2021/06/18 11:03:58;;;;;;;;;;;31.50;77.40;;;;;;8386284;28;20479;-66
2021/06/18 11:08:14;;;;;;;;;;;32.10;67.80;;;;;;8391208;28;19965;-66
2021/06/18 11:12:24;;;;;;;;;;;31.90;67.60;;;;;;8393032;28;19905;-66
2021/06/18 11:16:34;;;;;;;;;;;32.00;67.10;;;;;;8377633;28;19931;-66
2021/06/18 11:20:34;;;;;;;;;;;32.10;74.10;;;;;;8375916;28;19912;-66
2021/06/18 11:24:38;;;;;;;;;;;32.60;67.80;;;;;;8361459;28;20010;-66
2021/06/18 11:28:40;;;;;;;;;;;32.90;62.10;;;;;;8374402;28;20085;-65
2021/06/18 11:32:44;;;;;;;;;;;33.20;63.80;;;;;;8384647;28;19919;-66
2021/06/18 11:36:44;;;;;;;;;;;33.40;63.30;;;;;;8371942;28;19978;-65
2021/06/18 11:40:53;;;;;;;;;;;33.80;56.30;;;;;;8391859;28;19916;-66
2021/06/18 11:44:55;;;;;;;;;;;35.90;54.30;;;;;;8372671;28;20386;-66
2021/06/18 11:48:57;;;;;;;;;;;36.90;49.80;;;;;;8365403;28;19954;-67
2021/06/18 11:52:58;;;;;;;;;;;;;;;;;;8377521;28;19908;-65
2021/06/18 11:57:00;;;;;;;;;;;39.00;62.30;;;;;;8374585;28;19913;-66
2021/06/18 12:01:12;;;;;;;;;;;38.20;48.90;;;;;;8370690;28;20359;-66
2021/06/18 12:05:16;;;;;;;;;;;37.00;47.90;;;;;;8371398;28;22897;-68
2021/06/18 12:09:18;;;;;;;;;;;36.50;47.20;;;;;;8368596;28;20053;-68
2021/06/18 12:13:19;;;;;;;;;;;36.40;46.50;;;;;;8376472;28;19913;-67
2021/06/18 12:17:19;;;;;;;;;;;35.90;46.20;;;;;;8364819;28;19913;-68
2021/06/18 12:21:24;;;;;;;;;;;35.70;45.00;;;;;;8374435;28;19920;-68
2021/06/18 12:25:25;;;;;;;;;;;35.60;45.40;;;;;;8372679;28;19952;-68
2021/06/18 12:29:26;;;;;;;;;;;35.60;42.80;;;;;;8367791;28;19913;-68
2021/06/18 12:33:27;;;;;;;;;;;35.90;43.60;;;;;;8373825;28;19913;-68
2021/06/18 12:37:28;;;;;;;;;;;36.30;41.70;;;;;;8384591;28;19919;-69
2021/06/18 12:41:29;;;;;;;;;;;37.10;41.50;;;;;;8363030;28;19917;-69
2021/06/18 12:45:30;;;;;;;;;;;38.50;38.10;;;;;;8363954;28;19912;-69
2021/06/18 12:49:31;;;;;;;;;;;40.60;38.80;;;;;;8389253;28;19909;-69
2021/06/18 12:53:40;;;;;;;;;;;42.50;32.90;;;;;;8363687;28;19956;-69
2021/06/18 12:57:41;;;;;;;;;;;43.60;29.80;;;;;;8388390;28;20282;-69
2021/06/18 13:01:42;;;;;;;;;;;43.20;29.80;;;;;;8380883;28;19917;-69
2021/06/18 13:05:53;;;;;;;;;;;43.90;28.60;;;;;;8374710;28;19965;-69
2021/06/18 13:09:53;;;;;;;;;;;45.30;26.70;;;;;;8366494;28;20007;-69
2021/06/18 13:14:14;;;;;;;;;;;46.00;25.60;;;;;;8365778;28;19966;-68
2021/06/18 13:18:14;;;;;;;;;;;46.40;26.10;;;;;;8375826;28;19967;-69
2021/06/18 13:22:19;;;;;;;;;;;46.60;25.90;;;;;;8389029;28;19917;-69
2021/06/18 13:26:19;;;;;;;;;;;46.60;26.60;;;;;;8360588;28;19913;-69
2021/06/18 13:30:20;;;;;;;;;;;46.60;24.60;;;;;;8375900;28;19913;-69
2021/06/18 13:34:23;;;;;;;;;;;46.30;23.00;;;;;;8379707;28;20563;-69
2021/06/18 13:38:24;;;;;;;;;;;46.50;23.80;;;;;;8391319;28;19947;-69
2021/06/18 13:42:24;;;;;;;;;;;47.80;24.40;;;;;;8379213;28;19932;-69
2021/06/18 13:46:25;;;;;;;;;;;47.40;23.50;;;;;;8366685;28;19991;-69
2021/06/18 13:50:26;;;;;;;;;;;47.80;23.30;;;;;;8382879;28;19932;-69
2021/06/18 13:54:28;;;;;;;;;;;48.70;22.80;;;;;;8381941;28;19912;-69
2021/06/18 13:58:29;;;;;;;;;;;49.90;22.20;;;;;;8387103;28;19971;-69
2021/06/18 14:02:31;;;;;;;;;;;49.70;24.20;;;;;;8390214;28;20013;-69
2021/06/18 14:06:32;;;;;;;;;;;49.80;22.20;;;;;;8367754;28;19975;-70
2021/06/18 14:10:32;;;;;;;;;;;49.20;22.30;;;;;;8367446;28;19912;-69
2021/06/18 14:14:40;;;;;;;;;;;48.20;22.10;;;;;;8383520;28;19912;-70
2021/06/18 14:18:40;;;;;;;;;;;50.00;23.80;;;;;;8369705;28;19913;-70
2021/06/18 14:22:41;;;;;;;;;;;51.10;22.90;;;;;;8382516;28;19921;-70
2021/06/18 14:26:41;;;;;;;;;;;50.70;21.80;;;;;;8361167;28;20012;-70
2021/06/18 14:30:42;;;;;;;;;;;49.40;22.10;;;;;;8374379;28;19912;-70
2021/06/18 14:34:43;;;;;;;;;;;48.80;24.50;;;;;;8374998;28;19927;-70
2021/06/18 14:38:44;;;;;;;;;;;48.70;24.80;;;;;;8387163;28;19916;-70
2021/06/18 14:42:44;;;;;;;;;;;47.80;24.70;;;;;;8378243;28;19920;-69
2021/06/18 14:46:45;;;;;;;;;;;47.10;25.80;;;;;;8374904;28;19909;-69
2021/06/18 14:50:46;;;;;;;;;;;46.30;26.70;;;;;;8379015;28;20274;-70
2021/06/18 14:54:46;;;;;;;;;;;45.20;26.40;;;;;;8377338;28;19909;-70
2021/06/18 14:58:47;;;;;;;;;;;44.70;27.60;;;;;;8380438;28;19912;-70
2021/06/18 15:02:47;;;;;;;;;;;44.00;28.40;;;;;;8376152;28;19939;-70
2021/06/18 15:06:48;;;;;;;;;;;44.00;29.70;;;;;;8360298;28;19908;-71
2021/06/18 15:10:49;;;;;;;;;;;44.00;27.50;;;;;;8370466;28;19913;-71
2021/06/18 15:14:50;;;;;;;;;;;43.70;27.40;;;;;;8370646;28;19913;-70
2021/06/18 15:18:50;;;;;;;;;;;43.70;28.40;;;;;;8393842;28;20146;-70
2021/06/18 15:22:51;;;;;;;;;;;43.70;29.90;;;;;;8377017;28;19927;-71
2021/06/18 15:26:52;;;;;;;;;;;44.50;30.40;;;;;;8371478;28;20263;-70
2021/06/18 15:30:52;;;;;;;;;;;46.00;28.40;;;;;;8372129;28;19916;-71
2021/06/18 15:34:52;;;;;;;;;;;46.20;29.10;;;;;;8370765;28;19913;-71
2021/06/18 15:38:53;;;;;;;;;;;47.10;28.70;;;;;;8363082;28;19913;-69
2021/06/18 15:42:54;;;;;;;;;;;47.20;27.50;;;;;;8375340;28;19920;-69
2021/06/18 15:46:54;;;;;;;;;;;47.50;28.50;;;;;;8388764;28;20003;-69
2021/06/18 15:50:54;;;;;;;;;;;46.90;29.00;;;;;;8371581;28;20046;-69
2021/06/18 15:54:55;;;;;;;5.97;3.20;;;46.50;28.50;;;;;;8366606;28;20420;-69
2021/06/18 15:58:56;;;;;;;4.88;3.58;;;44.30;29.00;;;;;;8357295;28;20298;-70
2021/06/18 16:02:56;;;;;;;6.32;3.20;;;43.00;30.00;;;;;;8355374;28;20078;-70
2021/06/18 16:06:57;;;;;;;4.70;3.13;;;41.50;32.30;;;;;;8366001;28;20151;-70
2021/06/18 16:10:59;;;;;;;5.95;2.72;;;41.90;32.40;;;;;;8354836;28;20546;-70
2021/06/18 16:14:59;;;;;;;3.47;2.75;;;43.10;29.20;;;;;;8370303;28;20020;-70
2021/06/18 16:19:00;;;;;;;6.78;3.22;;;43.20;31.00;;;;;;8354405;28;20083;-70
2021/06/18 16:23:01;;;;;;;4.60;3.08;;;43.40;30.90;;;;;;8353010;28;20048;-72
2021/06/18 16:27:04;;;;;;;6.30;3.40;;;43.60;31.50;;;;;;8353589;28;20422;-71
2021/06/18 16:31:05;;;;;;;8.50;3.10;;;43.20;29.70;;;;;;8360678;28;20024;-71
2021/06/18 16:35:08;;;;;;;3.50;2.70;;;42.50;30.90;;;;;;8367565;28;20032;-72
2021/06/18 16:39:09;;;;;;;3.63;3.00;;;42.80;32.60;;;;;;8362156;28;20024;-71
2021/06/18 16:43:09;;;;;;;4.50;2.78;;;42.10;32.80;;;;;;8359348;28;20063;-62
2021/06/18 16:47:10;;;;;;;7.33;2.90;;;41.10;33.70;;;;;;8365887;28;20076;-62
2021/06/18 16:51:11;;;;;;;;;;;42.40;34.00;;;;;;8374557;28;19917;-63
2021/06/18 16:55:11;;;;;;;;;;;41.90;33.10;;;;;;8356153;28;19944;-63
2021/06/18 16:59:12;;;;;;;;;;;41.60;33.90;;;;;;8355244;28;19920;-63
2021/06/18 17:03:12;;;;;;;;;;;40.40;33.60;;;;;;8363119;28;19939;-63
2021/06/18 17:07:13;;;;;;;;;;;40.40;35.10;;;;;;8386119;28;19943;-63
2021/06/18 17:11:14;;;;;;;;;;;40.20;37.50;;;;;;8359981;28;19915;-63
2021/06/18 17:15:15;;;;;;;;;;;39.80;36.00;;;;;;8378546;28;19917;-62
2021/06/18 17:19:16;;;;;;;;;;;38.70;36.40;;;;;;8396767;28;19950;-62
2021/06/18 17:23:16;;;;;;;;;;;37.60;39.40;;;;;;8385853;28;19945;-61
2021/06/18 17:27:17;;;;;;;;;;;36.40;44.30;;;;;;8366557;28;19958;-61
2021/06/18 17:31:18;;;;;;;;;;;35.20;44.20;;;;;;8364377;28;19913;-61
2021/06/18 17:35:18;;;;;;;;;;;34.10;45.30;;;;;;8388274;28;19908;-61
2021/06/18 17:39:19;;;;;;;;;;;33.70;45.40;;;;;;8391983;28;19916;-61
2021/06/18 17:43:19;;;;;;;;;;;33.10;48.00;;;;;;8389450;28;19923;-62
2021/06/18 17:47:20;;;;;;;;;;;32.90;51.00;;;;;;8390352;28;19920;-62
2021/06/18 17:51:20;;;;;;;;;;;32.60;49.70;;;;;;8393514;28;19912;-61
2021/06/18 17:55:21;;;;;;;;;;;32.10;48.10;;;;;;8396024;28;19917;-61
2021/06/18 17:59:21;;;;;;;;;;;31.10;51.80;;;;;;8396329;28;19921;-61
2021/06/18 18:03:22;;;;;;;;;;;30.30;51.90;;;;;;8389771;28;19920;-61
2021/06/18 18:07:24;;;;;;;;;;;30.30;51.20;;;;;;8362865;28;19920;-62
2021/06/18 18:11:24;;;;;;;;;;;30.40;49.60;;;;;;8362122;28;20286;-61
2021/06/18 18:15:25;;;;;;;;;;;30.70;49.90;;;;;;8363871;28;19943;-61
2021/06/18 18:19:27;;;;;;;;;;;30.70;51.30;;;;;;8361989;28;20375;-61
2021/06/18 18:23:27;;;;;;;;;;;30.30;55.20;;;;;;8362809;28;19909;-61
2021/06/18 18:27:28;;;;;;;;;;;30.20;54.80;;;;;;8363097;28;19909;-61
2021/06/18 18:31:28;;;;;;;;;;;29.90;59.50;;;;;;8365249;28;19994;-62
2021/06/18 18:35:29;;;;;;;;;;;29.40;56.00;;;;;;8387899;28;19916;-62
2021/06/18 18:39:29;;;;;;;;;;;29.00;54.70;;;;;;8395524;28;19908;-62
2021/06/18 18:43:30;;;;;;;;;;;28.50;59.50;;;;;;8395560;28;20011;-62
2021/06/18 18:47:31;;;;;;;;;;;28.30;56.80;;;;;;8395577;28;19908;-62
2021/06/18 18:51:31;;;;;;;;;;;28.00;63.50;;;;;;8394389;28;20033;-61
2021/06/18 18:55:32;;;;;;;;;;;27.80;69.70;;;;;;8365005;28;20341;-61
2021/06/18 18:59:33;;;;;;;;;;;27.20;73.70;;;;;;8362112;28;20009;-62
2021/06/18 19:03:33;;;;;;;;;;;26.70;79.30;;;;;;8369614;28;19919;-61
2021/06/18 19:07:34;;;;;;;;;;;26.20;84.80;;;;;;8394406;28;20078;-62
2021/06/18 19:11:34;;;;;;;;;;;26.00;92.90;;;;;;8394846;28;19912;-62
2021/06/18 19:15:35;;;;;;;;;;;26.00;96.40;;;;;;8395246;28;19955;-61
2021/06/18 19:19:35;;;;;;;;;;;25.80;98.20;;;;;;8393588;28;19915;-61
2021/06/18 19:23:36;;;;;;;;;;;25.60;99.90;;;;;;8381219;28;19909;-61
2021/06/18 19:27:36;;;;;;;;;;;25.20;99.90;;;;;;8361326;28;19916;-61
2021/06/18 19:31:37;;;;;;;;;;;25.20;99.90;;;;;;8360894;28;19917;-61
2021/06/18 19:35:38;;;;;;;;;;;25.20;99.90;;;;;;8376565;28;20356;-60
2021/06/18 19:39:38;;;;;;;;;;;24.80;99.90;;;;;;8360792;28;19963;-61
2021/06/18 19:43:39;;;;;;;;;;;24.60;99.90;;;;;;8360837;28;19908;-61
2021/06/18 19:47:40;;;;;;;;;;;24.40;99.90;;;;;;8360405;28;19970;-61
2021/06/18 19:51:40;;;;;;;;;;;24.00;99.90;;;;;;8360208;28;19940;-62
2021/06/18 19:55:43;;;;;;;;;;;23.70;99.90;;;;;;8360647;28;20559;-61
2021/06/18 19:59:44;;;;;;;;;;;23.70;99.90;;;;;;8358535;28;20456;-61
2021/06/18 20:03:45;;;;;;;;;;;23.50;99.90;;;;;;8370268;28;19995;-61
2021/06/18 20:07:45;;;;;;;;;;;23.50;99.90;;;;;;8379877;28;20324;-61
2021/06/18 20:11:46;;;;;;;;;;;23.30;99.90;;;;;;8375646;28;19913;-61
2021/06/18 20:15:46;;;;;;;;;;;23.10;99.90;;;;;;8376085;28;20480;-61
2021/06/18 20:19:47;;;;;;;;;;;23.20;99.90;;;;;;8372897;28;20365;-61
2021/06/18 20:23:47;;;;;;;;;;;23.10;99.90;;;;;;8375494;28;20298;-60
2021/06/18 20:27:49;;;;;;;;;;;22.90;99.90;;;;;;8375396;28;19963;-61
2021/06/18 20:31:50;;;;;;;;;;;22.60;99.90;;;;;;8358999;28;20374;-61
2021/06/18 20:35:50;;;;;;;;;;;22.40;99.90;;;;;;8373687;28;19919;-61
2021/06/18 20:39:51;;;;;;;;;;;22.40;99.90;;;;;;8369572;28;19928;-61
2021/06/18 20:43:52;;;;;;;;;;;22.20;99.90;;;;;;8375316;28;19946;-61
2021/06/18 20:47:53;;;;;;;;;;;22.10;99.90;;;;;;8374766;28;19939;-61
2021/06/18 20:51:53;;;;;;;;;;;22.00;99.90;;;;;;8403608;23;20342;-65
2021/06/18 20:55:54;;;;;;;;;;;22.00;99.90;;;;;;8391404;28;20016;-65
2021/06/18 20:59:54;;;;;;;;;;;22.10;99.90;;;;;;8388639;28;19927;-65
2021/06/18 21:03:55;;;;;;;;;;;21.90;99.90;;;;;;8356300;28;19951;-64
2021/06/18 21:07:56;;;;;;;;;;;21.50;99.90;;;;;;8357712;28;19912;-64
2021/06/18 21:11:56;;;;;;;;;;;21.50;99.90;;;;;;8357740;28;19956;-65
2021/06/18 21:15:56;;;;;;;;;;;21.20;99.90;;;;;;8356801;28;19916;-65
2021/06/18 21:19:57;;;;;;;;;;;21.40;99.90;;;;;;8357452;28;19966;-65
2021/06/18 21:23:57;;;;;;;;;;;21.30;99.90;;;;;;8356621;28;19999;-65
2021/06/18 21:27:59;;;;;;;;;;;21.10;99.90;;;;;;8358887;28;19916;-65
2021/06/18 21:31:59;;;;;;;;;;;21.00;99.90;;;;;;8357501;28;20485;-65
2021/06/18 21:36:00;;;;;;;;;;;21.10;99.90;;;;;;8355897;28;19943;-65
2021/06/18 21:40:01;;;;;;;;;;;20.80;99.90;;;;;;8354870;28;19959;-65
2021/06/18 21:44:01;;;;;;;;;;;20.60;99.90;;;;;;8358477;28;19913;-65
2021/06/18 21:48:02;;;;;;;;;;;20.60;99.90;;;;;;8358796;28;20000;-65
2021/06/18 21:52:02;;;;;;;;;;;21.00;99.90;;;;;;8358918;28;19917;-65
2021/06/18 21:56:03;;;;;;;;;;;21.10;99.90;;;;;;8358858;28;19909;-66
2021/06/18 22:00:12;;;;;;;;;;;21.00;99.90;;;;;;8361440;28;19951;-65
2021/06/18 22:04:13;;;;;;;;;;;21.00;99.90;;;;;;8364716;28;19927;-65
2021/06/18 22:08:14;;;;;;;;;;;20.70;99.90;;;;;;8363781;28;19916;-65
2021/06/18 22:12:14;;;;;;;;;;;20.70;99.90;;;;;;8363920;28;20093;-65
2021/06/18 22:16:15;;;;;;;;;;;20.40;99.90;;;;;;8363755;28;19917;-65
2021/06/18 22:20:16;;;;;;;;;;;20.60;99.90;;;;;;8363030;28;20329;-66
2021/06/18 22:24:16;;;;;;;;;;;20.80;99.90;;;;;;8363227;28;19908;-65
2021/06/18 22:28:17;;;;;;;;;;;20.60;99.90;;;;;;8363284;28;19909;-65
2021/06/18 22:32:18;;;;;;;;;;;20.50;99.90;;;;;;8363141;28;19909;-66
2021/06/18 22:36:18;;;;;;;;;;;20.50;99.90;;;;;;8361255;28;19916;-65
2021/06/18 22:40:19;;;;;;;;;;;20.30;99.90;;;;;;8362106;28;19981;-65
2021/06/18 22:44:19;;;;;;;;;;;20.20;99.90;;;;;;8360891;28;20383;-65
2021/06/18 22:48:20;;;;;;;;;;;20.30;99.90;;;;;;8360124;28;19913;-66
2021/06/18 22:52:21;;;;;;;;;;;20.40;99.90;;;;;;8361961;28;20333;-65
2021/06/18 22:56:21;;;;;;;;;;;20.70;99.90;;;;;;8360372;28;20460;-65
2021/06/18 23:00:24;;;;;;;;;;;20.70;99.90;;;;;;8360931;28;19964;-65
2021/06/18 23:04:25;;;;;;;;;;;20.50;99.90;;;;;;8347490;28;20004;-66
2021/06/18 23:08:25;;;;;;;;;;;20.70;99.90;;;;;;8360586;28;19913;-65
2021/06/18 23:12:26;;;;;;;;;;;20.70;99.90;;;;;;8360463;28;20456;-65
2021/06/18 23:16:27;;;;;;;;;;;20.50;99.90;;;;;;8361638;28;19998;-65
2021/06/18 23:20:27;;;;;;;;;;;20.70;99.90;;;;;;8361256;28;20372;-65